Time;durP1;ratioP1;P1;durP2;ratioP2;P2;SDS_P1;SDS_P2;PMS_P1;PMS_P2;Temp;Humidity;BMP_temperature;BMP_pressure;BME280_temperature;BME280_humidity;BME280_pressure;Samples;Min_cycle;Max_cycle;Signal;HPM_P1;HPM_P2
2024/04/13 00:01:48;;;;;;;4.03;3.33;;;;;;;;;;5221890;27;20262;-87
2024/04/13 00:04:13;;;;;;;5.27;3.63;;;;;;;;;;5197959;27;20262;-86
2024/04/13 00:06:39;;;;;;;6.90;3.50;;;;;;;;;;5176836;27;20263;-86
2024/04/13 00:09:04;;;;;;;4.27;3.20;;;;;;;;;;5192802;27;20322;-86
2024/04/13 00:11:30;;;;;;;6.83;3.20;;;;;;;;;;5198252;27;20270;-85
2024/04/13 00:13:58;;;;;;;5.77;3.37;;;;;;;;;;5227363;27;20262;-86
2024/04/13 00:16:24;;;;;;;7.23;3.07;;;;;;;;;;5254261;27;20340;-85
2024/04/13 00:18:49;;;;;;;5.13;3.10;;;;;;;;;;5199442;27;20266;-86
2024/04/13 00:21:17;;;;;;;4.80;2.97;;;;;;;;;;5194647;27;20283;-86
2024/04/13 00:23:46;;;;;;;6.13;3.00;;;;;;;;;;5225761;27;20641;-86
2024/04/13 00:26:15;;;;;;;5.03;2.90;;;;;;;;;;5197735;27;20271;-86
2024/04/13 00:28:40;;;;;;;4.93;2.77;;;;;;;;;;5202839;27;20259;-88
2024/04/13 00:31:08;;;;;;;3.83;2.90;;;;;;;;;;5192377;27;20377;-86
2024/04/13 00:33:33;;;;;;;5.03;3.20;;;;;;;;;;5178174;27;20307;-87
2024/04/13 00:36:00;;;;;;;4.90;3.10;;;;;;;;;;5192153;27;20267;-87
2024/04/13 00:38:26;;;;;;;5.17;3.13;;;;;;;;;;5169514;27;20321;-85
2024/04/13 00:40:53;;;;;;;3.40;3.10;;;;;;;;;;5252299;27;20271;-87
2024/04/13 00:43:21;;;;;;;4.97;2.93;;;;;;;;;;5252922;27;20254;-86
2024/04/13 00:45:46;;;;;;;6.97;3.10;;;;;;;;;;5226799;27;20304;-87
2024/04/13 00:48:19;;;;;;;4.57;3.40;;;;;;;;;;5225805;27;20254;-86
2024/04/13 00:50:46;;;;;;;4.40;3.17;;;;;;;;;;5176479;27;20267;-87
2024/04/13 00:53:11;;;;;;;9.17;4.30;;;;;;;;;;5193071;27;20279;-86
2024/04/13 00:55:40;;;;;;;5.60;3.83;;;;;;;;;;5251563;27;20450;-87
2024/04/13 00:58:10;;;;;;;6.43;4.20;;;;;;;;;;5195711;27;20285;-87
2024/04/13 01:00:36;;;;;;;5.20;4.60;;;;;;;;;;5201935;27;20263;-86
2024/04/13 01:03:03;;;;;;;5.67;4.70;;;;;;;;;;5215331;27;20289;-85
2024/04/13 01:05:31;;;;;;;6.53;4.67;;;;;;;;;;5188633;27;20729;-87
2024/04/13 01:07:57;;;;;;;5.63;4.40;;;;;;;;;;5189773;27;20725;-87
2024/04/13 01:10:22;;;;;;;6.20;4.90;;;;;;;;;;5193339;27;20311;-86
2024/04/13 01:12:49;;;;;;;7.27;4.87;;;;;;;;;;5171264;27;20255;-86
2024/04/13 01:15:16;;;;;;;6.33;4.93;;;;;;;;;;5190573;27;20279;-85
2024/04/13 01:17:44;;;;;;;6.70;4.70;;;;;;;;;;5222869;27;20262;-87
2024/04/13 01:20:12;;;;;;;7.13;4.43;;;;;;;;;;5195556;27;20406;-87
2024/04/13 01:22:42;;;;;;;7.03;4.63;;;;;;;;;;5201354;27;20262;-87
2024/04/13 01:25:09;;;;;;;5.10;4.37;;;;;;;;;;5163345;27;20267;-87
2024/04/13 01:27:37;;;;;;;5.30;4.33;;;;;;;;;;5222410;27;20262;-87
2024/04/13 01:30:04;;;;;;;8.07;4.90;;;;;;;;;;5194486;27;20282;-87
2024/04/13 01:32:30;;;;;;;6.13;4.77;;;;;;;;;;5222008;27;20296;-86
2024/04/13 01:35:07;;;;;;;5.37;4.60;;;;;;;;;;5195952;27;20306;-87
2024/04/13 01:37:32;;;;;;;6.67;4.77;;;;;;;;;;5220283;27;20259;-87
2024/04/13 01:39:58;;;;;;;5.87;4.50;;;;;;;;;;5186385;27;20309;-86
2024/04/13 01:42:23;;;;;;;8.10;4.67;;;;;;;;;;5219158;27;20263;-86
2024/04/13 01:44:49;;;;;;;5.60;4.53;;;;;;;;;;5220790;27;20309;-86
2024/04/13 01:47:15;;;;;;;6.33;4.40;;;;;;;;;;5219726;27;20301;-87
2024/04/13 01:49:40;;;;;;;5.10;4.70;;;;;;;;;;5202264;27;20638;-87
2024/04/13 01:52:06;;;;;;;6.17;4.90;;;;;;;;;;5165982;27;20267;-87
2024/04/13 01:54:32;;;;;;;4.67;4.20;;;;;;;;;;5177577;27;20310;-86
2024/04/13 01:56:57;;;;;;;7.50;4.43;;;;;;;;;;5192013;27;20314;-87
2024/04/13 01:59:23;;;;;;;5.97;4.90;;;;;;;;;;5197015;27;20266;-87
2024/04/13 02:01:51;;;;;;;5.17;4.40;;;;;;;;;;5175338;27;20302;-86
2024/04/13 02:04:19;;;;;;;8.77;4.80;;;;;;;;;;5224869;27;20289;-86
2024/04/13 02:06:45;;;;;;;5.27;4.77;;;;;;;;;;5226595;27;20270;-84
2024/04/13 02:09:13;;;;;;;7.50;4.93;;;;;;;;;;5201241;27;20255;-86
2024/04/13 02:11:39;;;;;;;6.73;4.90;;;;;;;;;;5190848;27;20251;-86
2024/04/13 02:14:08;;;;;;;5.40;4.40;;;;;;;;;;5231946;27;20299;-87
2024/04/13 02:16:34;;;;;;;6.80;4.90;;;;;;;;;;5217664;27;20281;-86
2024/04/13 02:19:00;;;;;;;5.47;4.60;;;;;;;;;;5178188;27;20267;-86
2024/04/13 02:21:27;;;;;;;6.63;5.03;;;;;;;;;;5210459;27;20321;-87
2024/04/13 02:23:53;;;;;;;6.10;4.70;;;;;;;;;;5230018;27;20254;-86
2024/04/13 02:26:21;;;;;;;6.63;5.20;;;;;;;;;;5220759;27;20704;-85
2024/04/13 02:28:47;;;;;;;8.57;5.10;;;;;;;;;;5194606;27;20330;-85
2024/04/13 02:31:13;;;;;;;7.57;4.60;;;;;;;;;;5193216;27;20278;-86
2024/04/13 02:33:43;;;;;;;6.23;5.00;;;;;;;;;;5249264;27;20346;-86
2024/04/13 02:36:08;;;;;;;7.70;5.27;;;;;;;;;;5220974;27;20288;-86
2024/04/13 02:38:34;;;;;;;8.67;5.27;;;;;;;;;;5222159;27;20369;-87
2024/04/13 02:41:03;;;;;;;6.33;5.10;;;;;;;;;;5222238;27;20385;-85
2024/04/13 02:43:32;;;;;;;7.87;5.60;;;;;;;;;;5193741;27;20262;-87
2024/04/13 02:46:08;;;;;;;5.63;5.10;;;;;;;;;;5249615;27;20257;-86
2024/04/13 02:48:40;;;;;;;8.50;5.73;;;;;;;;;;5248241;27;20258;-86
2024/04/13 02:51:06;;;;;;;7.17;5.53;;;;;;;;;;5221202;27;20338;-86
2024/04/13 02:53:37;;;;;;;6.40;5.80;;;;;;;;;;5249743;27;20364;-87
2024/04/13 02:56:08;;;;;;;7.37;5.93;;;;;;;;;;5222221;27;20281;-87
2024/04/13 02:58:34;;;;;;;6.87;6.17;;;;;;;;;;5249983;27;20260;-86
2024/04/13 03:01:00;;;;;;;8.10;6.47;;;;;;;;;;5219683;27;20312;-86
2024/04/13 03:03:28;;;;;;;8.17;5.93;;;;;;;;;;5193150;27;20259;-86
2024/04/13 03:06:01;;;;;;;8.63;5.73;;;;;;;;;;5220831;27;20288;-86
2024/04/13 03:08:26;;;;;;;8.47;6.63;;;;;;;;;;5248644;27;20262;-86
2024/04/13 03:10:54;;;;;;;6.80;6.03;;;;;;;;;;5248873;27;20550;-85
2024/04/13 03:13:19;;;;;;;8.63;6.67;;;;;;;;;;5219957;27;20262;-86
2024/04/13 03:15:47;;;;;;;7.00;6.30;;;;;;;;;;5221133;27;20290;-87
2024/04/13 03:18:12;;;;;;;7.83;6.30;;;;;;;;;;5193489;27;20266;-86
2024/04/13 03:20:38;;;;;;;8.77;6.40;;;;;;;;;;5220933;27;20292;-87
2024/04/13 03:23:04;;;;;;;9.63;6.37;;;;;;;;;;5219581;27;20290;-87
2024/04/13 03:25:29;;;;;;;7.47;6.67;;;;;;;;;;5222011;27;20302;-86
2024/04/13 03:27:55;;;;;;;8.70;6.53;;;;;;;;;;5194373;27;20266;-87
2024/04/13 03:30:20;;;;;;;7.60;6.30;;;;;;;;;;5221301;27;20266;-86
2024/04/13 03:32:46;;;;;;;7.10;6.40;;;;;;;;;;5193377;27;20712;-86
2024/04/13 03:35:12;;;;;;;7.53;6.70;;;;;;;;;;5221722;27;20261;-85
2024/04/13 03:37:40;;;;;;;7.40;6.70;;;;;;;;;;5220619;27;20282;-86
2024/04/13 03:40:06;;;;;;;7.63;6.83;;;;;;;;;;5195678;27;20258;-87
2024/04/13 03:42:32;;;;;;;8.00;6.90;;;;;;;;;;5221863;27;20270;-85
2024/04/13 03:44:58;;;;;;;9.07;8.17;;;;;;;;;;5194545;27;20262;-85
2024/04/13 03:47:23;;;;;;;8.80;7.63;;;;;;;;;;5227193;27;20278;-88
2024/04/13 03:49:49;;;;;;;10.27;8.37;;;;;;;;;;5252428;27;20681;-87
2024/04/13 03:52:17;;;;;;;10.53;8.33;;;;;;;;;;5219929;27;20262;-85
2024/04/13 03:54:43;;;;;;;11.23;8.43;;;;;;;;;;5249737;27;20270;-86
2024/04/13 03:57:08;;;;;;;10.20;9.10;;;;;;;;;;5247844;27;20626;-86
2024/04/13 04:03:35;;;;;;;11.07;8.70;;;;;;;;;;5248858;27;20293;-87
2024/04/13 04:06:00;;;;;;;11.33;9.40;;;;;;;;;;5221886;27;20288;-87
2024/04/13 04:08:26;;;;;;;12.07;9.13;;;;;;;;;;5247671;27;20258;-86
2024/04/13 04:10:51;;;;;;;10.30;8.87;;;;;;;;;;5220533;27;20293;-85
2024/04/13 04:13:17;;;;;;;10.53;9.40;;;;;;;;;;5220122;27;20258;-85
2024/04/13 04:15:43;;;;;;;11.97;8.90;;;;;;;;;;5192391;27;20720;-86
2024/04/13 04:18:11;;;;;;;11.60;9.43;;;;;;;;;;5225059;27;20342;-87
2024/04/13 04:20:37;;;;;;;9.93;9.03;;;;;;;;;;5224477;27;20298;-86
2024/04/13 04:23:04;;;;;;;10.70;9.47;;;;;;;;;;5192722;27;20262;-86
2024/04/13 04:25:29;;;;;;;10.27;9.13;;;;;;;;;;5221226;27;20317;-86
2024/04/13 04:27:57;;;;;;;13.40;10.10;;;;;;;;;;5192584;27;20265;-86
2024/04/13 04:30:23;;;;;;;11.30;9.70;;;;;;;;;;5221060;27;20270;-86
2024/04/13 04:32:49;;;;;;;11.50;9.97;;;;;;;;;;5227443;27;20280;-85
2024/04/13 04:35:14;;;;;;;12.77;10.00;;;;;;;;;;5219252;27;20343;-85
2024/04/13 04:37:40;;;;;;;11.20;10.00;;;;;;;;;;5217593;27;20302;-86
2024/04/13 04:40:09;;;;;;;10.93;9.83;;;;;;;;;;5217405;27;20393;-85
2024/04/13 04:42:35;;;;;;;12.83;10.50;;;;;;;;;;5218191;27;20262;-85
2024/04/13 04:45:02;;;;;;;13.73;10.10;;;;;;;;;;5217700;27;20743;-85
2024/04/13 04:47:27;;;;;;;11.73;10.53;;;;;;;;;;5218143;27;20258;-85
2024/04/13 04:49:53;;;;;;;11.23;10.13;;;;;;;;;;5220246;27;20289;-85
2024/04/13 04:52:18;;;;;;;11.33;9.73;;;;;;;;;;5221121;27;20296;-87
2024/04/13 04:54:47;;;;;;;13.17;10.63;;;;;;;;;;5222514;27;20396;-85
2024/04/13 04:57:12;;;;;;;14.23;10.63;;;;;;;;;;5220270;27;20309;-85
2024/04/13 04:59:38;;;;;;;10.70;9.70;;;;;;;;;;5192757;27;20266;-85
2024/04/13 05:02:04;;;;;;;11.83;10.20;;;;;;;;;;5220699;27;20266;-87
2024/04/13 05:04:30;;;;;;;10.60;9.50;;;;;;;;;;5222390;27;20262;-86
2024/04/13 05:06:55;;;;;;;10.93;9.80;;;;;;;;;;5192090;27;20672;-85
2024/04/13 05:09:21;;;;;;;11.07;9.57;;;;;;;;;;5218226;27;20883;-87
2024/04/13 05:11:47;;;;;;;11.20;10.00;;;;;;;;;;5234552;27;20302;-83
2024/04/13 05:14:16;;;;;;;10.73;9.13;;;;;;;;;;5187720;27;20729;-83
2024/04/13 05:16:42;;;;;;;11.47;9.03;;;;;;;;;;5190062;27;20276;-85
2024/04/13 05:19:11;;;;;;;10.83;9.37;;;;;;;;;;5208929;27;20264;-84
2024/04/13 05:21:37;;;;;;;10.03;9.03;;;;;;;;;;5208202;27;20597;-84
2024/04/13 05:24:03;;;;;;;10.03;9.03;;;;;;;;;;5209848;27;20311;-85
2024/04/13 05:26:28;;;;;;;10.33;8.50;;;;;;;;;;5209897;27;20293;-86
2024/04/13 05:28:54;;;;;;;10.00;8.90;;;;;;;;;;5219799;27;20459;-86
2024/04/13 05:31:20;;;;;;;11.70;8.87;;;;;;;;;;5183085;27;20319;-85
2024/04/13 05:33:45;;;;;;;11.77;10.13;;;;;;;;;;5180445;27;20312;-85
2024/04/13 05:36:11;;;;;;;9.97;8.97;;;;;;;;;;5155486;27;20264;-86
2024/04/13 05:38:39;;;;;;;9.60;8.07;;;;;;;;;;5210997;27;20261;-87
2024/04/13 05:41:05;;;;;;;9.40;8.50;;;;;;;;;;5182174;27;20264;-84
2024/04/13 05:43:33;;;;;;;9.37;8.47;;;;;;;;;;5182891;27;20296;-87
2024/04/13 05:46:01;;;;;;;10.83;8.97;;;;;;;;;;5210405;27;20264;-88
2024/04/13 05:48:30;;;;;;;10.27;8.50;;;;;;;;;;5192842;27;20389;-86
2024/04/13 05:50:56;;;;;;;9.33;8.43;;;;;;;;;;5175996;27;20397;-88
2024/04/13 05:53:22;;;;;;;10.93;8.97;;;;;;;;;;5242180;27;20258;-88
2024/04/13 05:55:48;;;;;;;10.52;9.40;;;;;;;;;;5200814;27;20263;-85
2024/04/13 05:58:14;;;;;;;9.80;8.70;;;;;;;;;;5211025;27;21092;-87
2024/04/13 06:00:41;;;;;;;10.07;9.18;;;;;;;;;;5230829;27;20739;-86
2024/04/13 06:03:12;;;;;;;10.37;9.03;;;;;;;;;;5213615;27;20256;-87
2024/04/13 06:05:39;;;;;;;10.30;9.30;;;;;;;;;;5236463;27;20262;-86
2024/04/13 06:08:10;;;;;;;10.63;9.52;;;;;;;;;;5208071;27;20267;-86
2024/04/13 06:10:35;;;;;;;10.88;9.77;;;;;;;;;;5209404;27;20262;-86
2024/04/13 06:13:01;;;;;;;10.65;9.57;;;;;;;;;;5226702;27;20342;-87
2024/04/13 06:15:27;;;;;;;12.80;10.48;;;;;;;;;;5198559;27;20643;-87
2024/04/13 06:17:55;;;;;;;10.77;9.38;;;;;;;;;;5218746;27;20270;-87
2024/04/13 06:20:23;;;;;;;12.43;10.68;;;;;;;;;;5236535;27;20285;-86
2024/04/13 06:22:48;;;;;;;10.87;9.77;;;;;;;;;;5200985;27;20293;-89
2024/04/13 06:25:14;;;;;;;11.38;10.20;;;;;;;;;;5231020;27;20263;-86
2024/04/13 06:27:39;;;;;;;10.63;9.52;;;;;;;;;;5201547;27;20308;-85
2024/04/13 06:30:06;;;;;;;10.60;9.60;;;;;;;;;;5175385;27;20281;-87
2024/04/13 06:32:36;;;;;;;11.68;9.60;;;;;;;;;;5175840;27;20256;-85
2024/04/13 06:35:04;;;;;;;10.32;9.32;;;;;;;;;;5194889;27;20294;-84
2024/04/13 06:37:30;;;;;;;12.18;9.23;;;;;;;;;;5213831;27;20259;-83
2024/04/13 06:39:55;;;;;;;10.35;8.98;;;;;;;;;;5237677;27;20317;-84
2024/04/13 06:42:21;;;;;;;9.85;8.85;;;;;;;;;;5211743;27;20333;-85
2024/04/13 06:44:47;;;;;;;9.27;8.38;;;;;;;;;;5218546;27;20258;-83
2024/04/13 06:47:12;;;;;;;8.90;8.00;;;;;;;;;;5221902;27;20258;-87
2024/04/13 06:49:40;;;;;;;8.77;7.60;;;;;;;;;;5232426;27;20301;-87
2024/04/13 06:52:06;;;;;;;8.35;7.55;;;;;;;;;;5253518;27;20290;-87
2024/04/13 06:54:34;;;;;;;8.32;7.28;;;;;;;;;;5214328;27;20308;-85
2024/04/13 06:57:03;;;;;;;8.05;6.88;;;;;;;;;;5225447;27;20299;-87
2024/04/13 06:59:31;;;;;;;7.65;6.95;;;;;;;;;;5195105;27;20267;-87
2024/04/13 07:01:56;;;;;;;7.85;6.75;;;;;;;;;;5199969;27;20291;-86
2024/04/13 07:04:24;;;;;;;7.30;6.60;;;;;;;;;;5192086;27;20358;-88
2024/04/13 07:06:50;;;;;;;7.30;6.30;;;;;;;;;;5156300;27;20260;-87
2024/04/13 07:09:15;;;;;;;7.10;6.40;;;;;;;;;;5226156;27;20301;-85
2024/04/13 07:11:41;;;;;;;7.32;5.97;;;;;;;;;;5221164;27;20313;-86
2024/04/13 07:14:10;;;;;;;8.00;5.95;;;;;;;;;;5184292;27;20293;-86
2024/04/13 07:16:38;;;;;;;5.85;5.20;;;;;;;;;;5198269;27;20719;-87
2024/04/13 07:19:04;;;;;;;5.85;5.03;;;;;;;;;;5162966;27;20279;-85
2024/04/13 07:21:32;;;;;;;8.65;5.13;;;;;;;;;;5210849;27;20870;-83
2024/04/13 07:24:00;;;;;;;6.13;4.47;;;;;;;;;;5234916;27;20383;-85
2024/04/13 07:26:25;;;;;;;5.93;4.47;;;;;;;;;;5140809;27;20271;-87
2024/04/13 07:28:53;;;;;;;5.72;4.63;;;;;;;;;;5199316;27;20263;-87
2024/04/13 07:31:19;;;;;;;5.57;4.10;;;;;;;;;;5207929;27;20313;-86
2024/04/13 07:33:49;;;;;;;5.40;4.40;;;;;;;;;;5218904;27;20356;-86
2024/04/13 07:36:16;;;;;;;5.85;4.38;;;;;;;;;;5193458;27;20264;-84
2024/04/13 07:38:41;;;;;;;7.00;4.05;;;;;;;;;;5233589;27;20306;-86
2024/04/13 07:41:07;;;;;;;6.63;4.03;;;;;;;;;;5227196;27;20259;-85
2024/04/13 07:43:37;;;;;;;5.10;3.78;;;;;;;;;;5149815;27;20258;-86
2024/04/13 07:46:05;;;;;;;5.18;3.75;;;;;;;;;;5157533;27;20263;-86
2024/04/13 07:48:31;;;;;;;6.15;4.05;;;;;;;;;;5177517;27;20276;-84
2024/04/13 07:51:00;;;;;;;4.78;3.50;;;;;;;;;;5223194;27;20895;-87
2024/04/13 07:53:30;;;;;;;3.88;3.42;;;;;;;;;;5199377;27;20259;-87
2024/04/13 07:55:58;;;;;;;4.40;3.50;;;;;;;;;;5176529;27;20326;-88
2024/04/13 07:58:23;;;;;;;4.53;3.50;;;;;;;;;;5197798;27;20277;-87
2024/04/13 08:00:51;;;;;;;5.68;4.05;;;;;;;;;;5176484;27;20314;-88
2024/04/13 08:03:17;;;;;;;5.50;3.58;;;;;;;;;;5196391;27;20276;-78
2024/04/13 08:05:46;;;;;;;4.95;4.00;;;;;;;;;;5239478;27;20255;-78
2024/04/13 08:08:11;;;;;;;4.63;3.88;;;;;;;;;;5210795;27;20319;-80
2024/04/13 08:10:39;;;;;;;5.40;3.90;;;;;;;;;;5163304;27;20331;-78
2024/04/13 08:13:05;;;;;;;5.20;3.30;;;;;;;;;;5164390;27;20307;-77
2024/04/13 08:15:31;;;;;;;4.93;3.60;;;;;;;;;;5173293;27;20267;-77
2024/04/13 08:17:57;;;;;;;4.45;3.45;;;;;;;;;;5212260;27;20685;-78
2024/04/13 08:20:23;;;;;;;5.40;3.33;;;;;;;;;;5244083;27;20394;-78
2024/04/13 08:22:48;;;;;;;4.35;3.17;;;;;;;;;;5201899;27;20312;-79
2024/04/13 08:25:16;;;;;;;4.38;3.30;;;;;;;;;;5224063;27;20282;-78
2024/04/13 08:27:41;;;;;;;4.38;3.53;;;;;;;;;;5250681;27;20267;-78
2024/04/13 08:30:07;;;;;;;5.15;3.53;;;;;;;;;;5218122;27;20264;-78
2024/04/13 08:32:33;;;;;;;4.38;3.50;;;;;;;;;;5220245;27;20358;-78
2024/04/13 08:34:58;;;;;;;4.93;3.33;;;;;;;;;;5195287;27;20737;-78
2024/04/13 08:37:24;;;;;;;4.60;3.45;;;;;;;;;;5193082;27;20271;-77
2024/04/13 08:39:53;;;;;;;5.25;3.67;;;;;;;;;;5220144;27;20264;-76
2024/04/13 08:42:26;;;;;;;4.85;3.13;;;;;;;;;;5250359;27;20374;-80
2024/04/13 08:44:54;;;;;;;4.97;3.45;;;;;;;;;;5190087;27;20372;-79
2024/04/13 08:47:23;;;;;;;4.85;3.28;;;;;;;;;;5195978;27;20259;-78
2024/04/13 08:49:48;;;;;;;4.40;3.67;;;;;;;;;;5249252;27;20264;-78
2024/04/13 08:52:14;;;;;;;6.65;3.70;;;;;;;;;;5192454;27;20411;-79
2024/04/13 08:54:39;;;;;;;4.15;2.92;;;;;;;;;;5202924;27;20272;-80
2024/04/13 08:57:06;;;;;;;5.72;3.60;;;;;;;;;;5192635;27;20395;-78
2024/04/13 08:59:34;;;;;;;5.63;3.17;;;;;;;;;;5188306;27;20742;-78
2024/04/13 09:01:59;;;;;;;5.47;3.30;;;;;;;;;;5233857;27;21083;-76
2024/04/13 09:04:25;;;;;;;4.97;3.13;;;;;;;;;;5192801;27;20390;-77
2024/04/13 09:06:53;;;;;;;5.00;3.45;;;;;;;;;;5247280;27;20307;-77
2024/04/13 09:09:21;;;;;;;3.80;3.08;;;;;;;;;;5180258;27;20326;-80
2024/04/13 09:11:50;;;;;;;3.33;2.95;;;;;;;;;;5169725;27;20306;-76
2024/04/13 09:14:18;;;;;;;3.20;2.80;;;;;;;;;;5219648;27;20881;-76
2024/04/13 09:16:46;;;;;;;4.70;3.15;;;;;;;;;;5231571;27;20375;-78
2024/04/13 09:19:12;;;;;;;4.03;3.00;;;;;;;;;;5226707;27;20264;-77
2024/04/13 09:21:38;;;;;;;5.03;2.80;;;;;;;;;;5223277;27;20304;-78
2024/04/13 09:24:07;;;;;;;3.38;2.80;;;;;;;;;;5227171;27;21176;-79
2024/04/13 09:26:46;;;;;;;6.03;2.80;;;;;;;;;;5226530;27;20292;-78
2024/04/13 09:29:15;;;;;;;5.82;3.50;;;;;;;;;;5225188;27;20292;-78
2024/04/13 09:31:43;;;;;;;5.10;2.92;;;;;;;;;;5228724;27;20318;-77
2024/04/13 09:34:17;;;;;;;5.50;3.15;;;;;;;;;;5223962;27;20660;-78
2024/04/13 09:36:42;;;;;;;4.43;2.90;;;;;;;;;;5222654;27;20266;-76
2024/04/13 09:39:22;;;;;;;6.47;2.63;;;;;;;;;;5229701;27;20909;-81
2024/04/13 09:41:48;;;;;;;5.78;2.65;;;;;;;;;;5210572;27;20850;-77
2024/04/13 09:44:29;;;;;;;3.90;2.67;;;;;;;;;;5197699;27;20306;-79
2024/04/13 09:46:55;;;;;;;5.60;3.10;;;;;;;;;;5178100;27;20301;-77
2024/04/13 09:49:21;;;;;;;4.82;2.90;;;;;;;;;;5222738;27;20762;-77
2024/04/13 09:51:48;;;;;;;3.50;2.70;;;;;;;;;;5203027;27;20263;-78
2024/04/13 09:54:14;;;;;;;3.78;2.53;;;;;;;;;;5231634;27;20707;-77
2024/04/13 09:56:40;;;;;;;3.25;2.65;;;;;;;;;;5200375;27;20271;-79
2024/04/13 09:59:08;;;;;;;3.60;2.67;;;;;;;;;;5207388;27;20271;-77
2024/04/13 10:01:34;;;;;;;5.75;2.70;;;;;;;;;;5228365;27;20262;-76
2024/04/13 10:03:59;;;;;;;3.90;2.72;;;;;;;;;;5199878;27;20324;-76
2024/04/13 10:06:25;;;;;;;5.63;2.83;;;;;;;;;;5229377;27;20262;-79
2024/04/13 10:08:50;;;;;;;4.20;2.50;;;;;;;;;;5226715;27;20343;-78
2024/04/13 10:11:16;;;;;;;4.45;2.67;;;;;;;;;;5204631;27;20258;-77
2024/04/13 10:13:43;;;;;;;5.20;2.50;;;;;;;;;;5223680;27;20366;-77
2024/04/13 10:16:09;;;;;;;5.13;2.30;;;;;;;;;;5235094;27;20255;-79
2024/04/13 10:18:36;;;;;;;4.30;2.35;;;;;;;;;;5222097;27;20908;-77
2024/04/13 10:21:09;;;;;;;4.32;2.35;;;;;;;;;;5232209;27;20267;-79
2024/04/13 10:23:41;;;;;;;4.25;2.40;;;;;;;;;;5225134;27;20769;-76
2024/04/13 10:26:06;;;;;;;4.53;2.08;;;;;;;;;;5233952;27;20775;-79
2024/04/13 10:28:34;;;;;;;3.25;2.13;;;;;;;;;;5196997;27;20297;-77
2024/04/13 10:31:00;;;;;;;3.67;2.42;;;;;;;;;;5227007;27;20314;-77
2024/04/13 10:33:31;;;;;;;3.53;2.03;;;;;;;;;;5202229;27;20266;-77
2024/04/13 10:35:57;;;;;;;3.63;2.33;;;;;;;;;;5194015;27;20259;-79
2024/04/13 10:38:24;;;;;;;2.95;2.15;;;;;;;;;;5224818;27;22739;-77
2024/04/13 10:40:50;;;;;;;2.75;2.30;;;;;;;;;;5231782;27;20841;-77
2024/04/13 10:43:18;;;;;;;3.28;2.10;;;;;;;;;;5197198;27;20302;-78
2024/04/13 10:46:05;;;;;;;5.47;2.03;;;;;;;;;;5204675;27;20282;-84
2024/04/13 10:48:32;;;;;;;4.03;2.15;;;;;;;;;;5195445;27;20263;-82
2024/04/13 10:51:02;;;;;;;5.10;2.20;;;;;;;;;;5201045;27;20268;-87
2024/04/13 10:53:30;;;;;;;3.20;2.28;;;;;;;;;;5237567;27;20263;-83
2024/04/13 10:55:58;;;;;;;3.05;2.10;;;;;;;;;;5181086;27;20303;-84
2024/04/13 10:58:30;;;;;;;2.10;1.90;;;;;;;;;;5221680;27;20264;-85
2024/04/13 11:00:57;;;;;;;3.55;2.10;;;;;;;;;;5230538;27;20255;-86
2024/04/13 11:03:25;;;;;;;4.30;2.28;;;;;;;;;;5203638;27;20259;-84
2024/04/13 11:05:50;;;;;;;4.07;2.45;;;;;;;;;;5195991;27;20259;-83
2024/04/13 11:08:16;;;;;;;2.85;2.53;;;;;;;;;;5218083;27;20303;-84
2024/04/13 11:10:51;;;;;;;3.83;2.60;;;;;;;;;;5199395;27;20347;-85
2024/04/13 11:13:21;;;;;;;3.42;2.45;;;;;;;;;;5240961;27;20359;-83
2024/04/13 11:15:51;;;;;;;4.43;2.53;;;;;;;;;;5186850;27;20332;-84
2024/04/13 11:18:23;;;;;;;3.35;2.35;;;;;;;;;;5185817;27;20294;-84
2024/04/13 11:20:52;;;;;;;3.45;2.17;;;;;;;;;;5167639;27;20268;-85
2024/04/13 11:23:17;;;;;;;4.00;2.40;;;;;;;;;;5230678;27;20259;-85
2024/04/13 11:25:48;;;;;;;5.30;2.47;;;;;;;;;;5228204;27;20334;-85
2024/04/13 11:28:13;;;;;;;2.58;2.20;;;;;;;;;;5227341;27;20310;-82
2024/04/13 11:30:41;;;;;;;3.05;2.00;;;;;;;;;;5152017;27;20594;-83
2024/04/13 11:33:10;;;;;;;3.72;2.40;;;;;;;;;;5200851;27;20744;-85
2024/04/13 11:35:36;;;;;;;2.95;2.03;;;;;;;;;;5178593;27;20259;-84
2024/04/13 11:38:04;;;;;;;3.63;2.28;;;;;;;;;;5197416;27;20548;-83
2024/04/13 11:40:35;;;;;;;3.25;2.30;;;;;;;;;;5251168;27;20267;-85
2024/04/13 11:43:01;;;;;;;2.67;2.00;;;;;;;;;;5181072;27;20293;-83
2024/04/13 11:45:29;;;;;;;3.13;2.00;;;;;;;;;;5237250;27;20591;-86
2024/04/13 11:47:57;;;;;;;2.92;1.73;;;;;;;;;;5250225;27;20314;-85
2024/04/13 11:50:22;;;;;;;2.33;1.65;;;;;;;;;;5235182;27;20329;-85
2024/04/13 11:52:48;;;;;;;2.95;1.75;;;;;;;;;;5236128;27;20723;-85
2024/04/13 11:55:20;;;;;;;2.33;1.50;;;;;;;;;;5179814;27;20327;-85
2024/04/13 11:57:46;;;;;;;3.17;1.80;;;;;;;;;;5231813;27;20319;-83
2024/04/13 12:00:14;;;;;;;4.32;1.45;;;;;;;;;;5230437;27;20374;-85
2024/04/13 12:02:46;;;;;;;2.92;1.63;;;;;;;;;;5233947;27;20304;-85
2024/04/13 12:05:12;;;;;;;2.15;1.60;;;;;;;;;;5206988;27;20259;-85
2024/04/13 12:07:37;;;;;;;3.25;1.40;;;;;;;;;;5207695;27;20779;-85
2024/04/13 12:10:07;;;;;;;2.17;1.40;;;;;;;;;;5235983;27;20297;-84
2024/04/13 12:12:32;;;;;;;2.58;1.35;;;;;;;;;;5246988;27;20389;-85
2024/04/13 12:15:00;;;;;;;1.55;1.35;;;;;;;;;;5207936;27;20270;-84
2024/04/13 12:17:28;;;;;;;2.00;1.23;;;;;;;;;;5196552;27;20267;-84
2024/04/13 12:19:53;;;;;;;2.03;1.10;;;;;;;;;;5228819;27;20623;-85
2024/04/13 12:22:22;;;;;;;2.83;1.20;;;;;;;;;;5232566;27;20628;-85
2024/04/13 12:24:50;;;;;;;3.35;1.02;;;;;;;;;;5182333;27;20263;-85
2024/04/13 12:27:15;;;;;;;2.08;1.10;;;;;;;;;;5199416;27;20256;-84
2024/04/13 12:29:43;;;;;;;2.30;1.15;;;;;;;;;;5171195;27;20285;-86
2024/04/13 12:32:08;;;;;;;3.05;1.65;;;;;;;;;;5179068;27;20658;-86
2024/04/13 12:34:41;;;;;;;3.58;1.42;;;;;;;;;;5200684;27;20275;-85
2024/04/13 12:37:08;;;;;;;2.83;1.50;;;;;;;;;;5187807;27;20301;-84
2024/04/13 12:39:34;;;;;;;2.45;1.70;;;;;;;;;;5245966;27;20284;-84
2024/04/13 12:42:02;;;;;;;2.20;1.50;;;;;;;;;;5200032;27;20267;-86
2024/04/13 12:44:28;;;;;;;2.65;1.48;;;;;;;;;;5213495;27;20301;-84
2024/04/13 12:46:55;;;;;;;3.42;1.90;;;;;;;;;;5211526;27;20262;-84
2024/04/13 12:49:22;;;;;;;3.63;2.00;;;;;;;;;;5215669;27;20285;-86
2024/04/13 12:51:48;;;;;;;3.45;2.25;;;;;;;;;;5260998;27;20254;-86
2024/04/13 12:54:13;;;;;;;2.95;2.25;;;;;;;;;;5234132;27;20297;-84
2024/04/13 12:56:39;;;;;;;3.50;2.20;;;;;;;;;;5203638;27;20269;-85
2024/04/13 12:59:06;;;;;;;3.92;2.05;;;;;;;;;;5201424;27;20282;-85
2024/04/13 13:01:32;;;;;;;3.75;2.17;;;;;;;;;;5214461;27;20616;-89
2024/04/13 13:04:00;;;;;;;2.60;2.20;;;;;;;;;;5205142;27;20376;-84
2024/04/13 13:06:26;;;;;;;2.55;2.17;;;;;;;;;;5201872;27;20263;-85
2024/04/13 13:08:51;;;;;;;3.38;2.38;;;;;;;;;;5204235;27;20755;-84
2024/04/13 13:11:17;;;;;;;3.90;2.47;;;;;;;;;;5196727;27;20564;-86
2024/04/13 13:13:42;;;;;;;4.85;2.60;;;;;;;;;;5172758;27;20325;-85
2024/04/13 13:16:08;;;;;;;4.78;2.53;;;;;;;;;;5177827;27;20299;-87
2024/04/13 13:18:34;;;;;;;2.78;2.22;;;;;;;;;;5196740;27;20306;-85
2024/04/13 13:21:04;;;;;;;2.38;1.95;;;;;;;;;;5182528;27;20376;-84
2024/04/13 13:23:32;;;;;;;4.13;2.50;;;;;;;;;;5200858;27;20295;-85
2024/04/13 13:26:00;;;;;;;2.58;2.10;;;;;;;;;;5213683;27;20299;-85
2024/04/13 13:28:25;;;;;;;4.10;2.58;;;;;;;;;;5237127;27;20826;-82
2024/04/13 13:30:53;;;;;;;2.55;2.15;;;;;;;;;;5240123;27;20672;-82
2024/04/13 13:33:19;;;;;;;2.60;2.22;;;;;;;;;;5260159;27;20302;-86
2024/04/13 13:35:46;;;;;;;3.80;2.40;;;;;;;;;;5239423;27;20778;-82
2024/04/13 13:38:12;;;;;;;2.55;2.15;;;;;;;;;;5268165;27;20270;-87
2024/04/13 13:40:37;;;;;;;2.92;2.50;;;;;;;;;;5248210;27;20303;-83
2024/04/13 13:43:05;;;;;;;3.03;2.40;;;;;;;;;;5204511;27;20270;-88
2024/04/13 13:45:32;;;;;;;2.80;2.30;;;;;;;;;;5189866;27;20303;-83
2024/04/13 13:47:58;;;;;;;2.83;2.33;;;;;;;;;;5160318;27;20274;-84
2024/04/13 13:50:24;;;;;;;2.88;2.25;;;;;;;;;;5237966;27;21219;-85
2024/04/13 13:52:52;;;;;;;2.47;2.28;;;;;;;;;;5162173;27;20293;-83
2024/04/13 13:55:17;;;;;;;3.50;2.33;;;;;;;;;;5215743;27;20262;-83
2024/04/13 13:57:45;;;;;;;2.65;2.45;;;;;;;;;;5213184;27;20294;-83
2024/04/13 14:00:11;;;;;;;2.88;2.55;;;;;;;;;;5176980;27;20300;-85
2024/04/13 14:02:37;;;;;;;3.83;2.17;;;;;;;;;;5158932;27;20271;-82
2024/04/13 14:05:03;;;;;;;4.60;3.00;;;;;;;;;;5203164;27;20916;-82
2024/04/13 14:07:28;;;;;;;3.25;2.25;;;;;;;;;;5199558;27;20407;-86
2024/04/13 14:09:54;;;;;;;3.45;2.50;;;;;;;;;;5186077;27;20273;-84
2024/04/13 14:12:25;;;;;;;3.83;2.50;;;;;;;;;;5147849;27;20276;-85
2024/04/13 14:14:51;;;;;;;2.85;2.55;;;;;;;;;;5185548;27;20267;-84
2024/04/13 14:17:17;;;;;;;3.85;2.92;;;;;;;;;;5230945;27;20760;-85
2024/04/13 14:19:44;;;;;;;4.90;2.78;;;;;;;;;;5236727;27;20266;-84
2024/04/13 14:22:10;;;;;;;3.38;2.65;;;;;;;;;;5188555;27;20302;-86
2024/04/13 14:24:38;;;;;;;4.13;3.08;;;;;;;;;;5212383;27;20547;-88
2024/04/13 14:27:04;;;;;;;3.38;2.65;;;;;;;;;;5210275;27;20665;-85
2024/04/13 14:29:32;;;;;;;4.68;3.20;;;;;;;;;;5240844;27;20391;-85
2024/04/13 14:31:57;;;;;;;5.45;3.30;;;;;;;;;;5180032;27;20310;-83
2024/04/13 14:34:23;;;;;;;6.55;3.50;;;;;;;;;;5240877;27;20866;-85
2024/04/13 14:36:49;;;;;;;3.65;3.33;;;;;;;;;;5184232;27;20275;-85
2024/04/13 14:39:17;;;;;;;5.00;4.00;;;;;;;;;;5235768;27;20618;-84
2024/04/13 14:41:43;;;;;;;4.10;3.70;;;;;;;;;;5198873;27;20405;-82
2024/04/13 14:44:12;;;;;;;4.03;3.72;;;;;;;;;;5198179;27;20348;-76